createdAt,value
2017-12-05T00:00:00.597Z,22.46
2017-12-05T00:00:12.302Z,22.39
2017-12-05T00:00:25.595Z,22.41
2017-12-05T00:00:38.709Z,22.33
2017-12-05T00:00:51.310Z,22.34
2017-12-05T00:01:04.391Z,22.31
2017-12-05T00:01:17.476Z,22.33
2017-12-05T00:01:30.620Z,22.33
2017-12-05T00:01:43.724Z,22.34
2017-12-05T00:01:56.809Z,22.29
2017-12-05T00:02:09.899Z,22.34
2017-12-05T00:02:22.528Z,22.46
2017-12-05T00:02:35.605Z,22.44
2017-12-05T00:02:48.702Z,22.33
2017-12-05T00:03:01.817Z,22.31
2017-12-05T00:03:14.887Z,22.36
2017-12-05T00:03:28.287Z,22.42
2017-12-05T00:03:40.883Z,22.34
2017-12-05T00:03:54.001Z,22.36
2017-12-05T00:04:07.062Z,22.36
2017-12-05T00:04:20.147Z,22.29
2017-12-05T00:04:32.837Z,22.44
2017-12-05T00:04:45.954Z,22.33
2017-12-05T00:04:59.145Z,22.39
2017-12-05T00:05:12.263Z,22.3
2017-12-05T00:05:25.420Z,22.36
2017-12-05T00:05:38.547Z,22.38
2017-12-05T00:05:51.617Z,22.45
2017-12-05T00:06:04.719Z,22.39
2017-12-05T00:06:17.832Z,22.42
2017-12-05T00:06:30.450Z,22.42
2017-12-05T00:06:43.525Z,22.29
2017-12-05T00:06:56.604Z,22.34
2017-12-05T00:07:09.478Z,22.38
2017-12-05T00:07:22.596Z,22.33
2017-12-05T00:07:35.229Z,22.29
2017-12-05T00:07:48.373Z,22.29
2017-12-05T00:08:01.499Z,22.29
2017-12-05T00:08:14.633Z,22.33
2017-12-05T00:08:27.752Z,22.31
2017-12-05T00:08:40.872Z,22.31
2017-12-05T00:08:53.930Z,22.18
2017-12-05T00:09:07.077Z,22.15
2017-12-05T00:09:20.200Z,22.2
2017-12-05T00:09:33.299Z,22.18
2017-12-05T00:09:46.408Z,22.18
2017-12-05T00:09:59.459Z,22.22
2017-12-05T00:10:12.610Z,22.16
2017-12-05T00:10:25.280Z,22.15
2017-12-05T00:10:38.352Z,22.22
2017-12-05T00:10:51.469Z,22.27
2017-12-05T00:11:04.604Z,22.23
2017-12-05T00:11:17.718Z,22.27
2017-12-05T00:11:30.785Z,22.26
2017-12-05T00:11:43.921Z,22.27
2017-12-05T00:11:57.042Z,22.36
2017-12-05T00:12:10.116Z,22.2
2017-12-05T00:12:23.165Z,22.27
2017-12-05T00:12:36.318Z,22.24
2017-12-05T00:12:48.995Z,22.39
2017-12-05T00:13:01.652Z,22.26
2017-12-05T00:13:14.741Z,22.29
2017-12-05T00:13:27.410Z,22.3
2017-12-05T00:13:40.540Z,22.41
2017-12-05T00:13:53.641Z,22.33
2017-12-05T00:14:05.775Z,22.27
2017-12-05T00:14:18.395Z,22.29
2017-12-05T00:14:31.002Z,22.31
2017-12-05T00:14:44.154Z,22.38
2017-12-05T00:14:57.291Z,22.27
2017-12-05T00:15:09.441Z,22.31
2017-12-05T00:15:22.574Z,22.29
2017-12-05T00:15:35.693Z,22.33
2017-12-05T00:15:48.770Z,22.36
2017-12-05T00:16:01.859Z,22.27
2017-12-05T00:16:15.004Z,22.3
2017-12-05T00:16:28.094Z,22.29
2017-12-05T00:16:40.713Z,22.36
2017-12-05T00:16:53.882Z,22.33
2017-12-05T00:17:07.047Z,22.29
2017-12-05T00:17:20.156Z,22.27
2017-12-05T00:17:33.246Z,22.34
2017-12-05T00:17:46.371Z,22.3
2017-12-05T00:17:59.459Z,22.3
2017-12-05T00:18:12.058Z,22.23
2017-12-05T00:18:25.213Z,22.27
2017-12-05T00:18:37.819Z,22.27
2017-12-05T00:18:50.494Z,22.27
2017-12-05T00:19:03.603Z,22.34
2017-12-05T00:19:16.222Z,22.31
2017-12-05T00:19:29.340Z,22.33
2017-12-05T00:19:42.419Z,22.27
2017-12-05T00:19:55.103Z,22.27
2017-12-05T00:20:07.793Z,22.3
2017-12-05T00:20:20.437Z,22.29
2017-12-05T00:20:33.066Z,22.24
2017-12-05T00:20:46.174Z,22.22
2017-12-05T00:20:59.258Z,22.16
2017-12-05T00:21:12.334Z,22.22
2017-12-05T00:21:25.406Z,22.18
2017-12-05T00:21:38.569Z,22.08
2017-12-05T00:21:51.686Z,22.07
2017-12-05T00:22:04.771Z,22.11
2017-12-05T00:22:17.889Z,22.09
2017-12-05T00:22:30.523Z,22.12
2017-12-05T00:22:43.574Z,22.11
2017-12-05T00:22:56.704Z,22.14
2017-12-05T00:23:09.830Z,22.08
2017-12-05T00:23:22.980Z,22.12
2017-12-05T00:23:36.075Z,22.05
2017-12-05T00:23:49.137Z,22.07
2017-12-05T00:24:02.203Z,22.09
2017-12-05T00:24:15.271Z,22.02
2017-12-05T00:24:28.437Z,22
2017-12-05T00:24:41.583Z,22.05
2017-12-05T00:24:54.632Z,22.08
2017-12-05T00:25:07.724Z,22.04
2017-12-05T00:25:20.784Z,22.04
2017-12-05T00:25:33.850Z,22.05
2017-12-05T00:25:46.961Z,21.99
2017-12-05T00:26:00.139Z,22.08
2017-12-05T00:26:12.285Z,22
2017-12-05T00:26:25.406Z,22.07
2017-12-05T00:26:38.027Z,21.99
2017-12-05T00:26:51.142Z,22
2017-12-05T00:27:03.730Z,21.97
2017-12-05T00:27:16.881Z,22.04
2017-12-05T00:27:29.994Z,21.96
2017-12-05T00:27:43.075Z,21.94
2017-12-05T00:27:56.198Z,22.02
2017-12-05T00:28:09.300Z,21.97
2017-12-05T00:28:22.416Z,21.96
2017-12-05T00:28:35.539Z,22.05
2017-12-05T00:28:48.817Z,21.99
2017-12-05T00:29:00.942Z,22
2017-12-05T00:29:14.032Z,22
2017-12-05T00:29:27.197Z,22.07
2017-12-05T00:29:40.292Z,22.04
2017-12-05T00:29:53.359Z,22.04
2017-12-05T00:30:06.157Z,22.08
2017-12-05T00:30:19.259Z,22.08
2017-12-05T00:30:32.408Z,22.02
2017-12-05T00:30:45.727Z,22.05
2017-12-05T00:30:58.375Z,22.07
2017-12-05T00:31:11.023Z,22.02
2017-12-05T00:31:23.644Z,22.11
2017-12-05T00:31:36.210Z,22
2017-12-05T00:31:49.306Z,21.97
2017-12-05T00:32:02.371Z,22.05
2017-12-05T00:32:15.051Z,22.07
2017-12-05T00:32:28.136Z,22.09
2017-12-05T00:32:40.770Z,22.04
2017-12-05T00:32:53.854Z,22.07
2017-12-05T00:33:07.193Z,22.11
2017-12-05T00:33:20.271Z,22.02
2017-12-05T00:33:33.379Z,22.08
2017-12-05T00:33:46.482Z,22.09
2017-12-05T00:33:59.608Z,22.11
2017-12-05T00:34:12.719Z,22.09
2017-12-05T00:34:25.785Z,22.04
2017-12-05T00:34:38.433Z,22.11
2017-12-05T00:34:51.095Z,22.07
2017-12-05T00:35:03.267Z,22.11
2017-12-05T00:35:15.501Z,22.11
2017-12-05T00:35:28.647Z,22.08
2017-12-05T00:35:41.742Z,22.09
2017-12-05T00:35:54.399Z,22.07
2017-12-05T00:36:07.492Z,22.02
2017-12-05T00:36:20.635Z,22.05
2017-12-05T00:36:33.338Z,22.04
2017-12-05T00:36:46.427Z,22.12
2017-12-05T00:36:59.562Z,22.16
2017-12-05T00:37:12.694Z,22.18
2017-12-05T00:37:25.395Z,22.23
2017-12-05T00:37:38.513Z,22.23
2017-12-05T00:37:51.615Z,22.16
2017-12-05T00:38:04.654Z,22.18
2017-12-05T00:38:17.731Z,22.24
2017-12-05T00:38:30.875Z,22.26
2017-12-05T00:38:44.011Z,22.22
2017-12-05T00:38:57.111Z,22.2
2017-12-05T00:39:10.157Z,22.29
2017-12-05T00:39:23.237Z,22.23
2017-12-05T00:39:36.349Z,22.3
2017-12-05T00:39:49.504Z,22.27
2017-12-05T00:40:02.565Z,22.24
2017-12-05T00:40:15.436Z,22.22
2017-12-05T00:40:28.539Z,22.24
2017-12-05T00:40:41.680Z,22.24
2017-12-05T00:40:54.851Z,22.15
2017-12-05T00:41:07.939Z,22.18
2017-12-05T00:41:21.040Z,22.18
2017-12-05T00:41:34.134Z,22.22
2017-12-05T00:41:47.218Z,22.18
2017-12-05T00:41:59.873Z,22.2
2017-12-05T00:42:12.680Z,22.18
2017-12-05T00:42:25.749Z,22.2
2017-12-05T00:42:38.872Z,22.18
2017-12-05T00:42:51.908Z,22.14
2017-12-05T00:43:04.548Z,22.18
2017-12-05T00:43:17.147Z,22.18
2017-12-05T00:43:30.227Z,22.18
2017-12-05T00:43:45.578Z,22.12
2017-12-05T00:43:58.238Z,22.18
2017-12-05T00:44:24.084Z,22.07
2017-12-05T00:44:36.689Z,22.22
2017-12-05T00:44:49.302Z,22.18
2017-12-05T00:45:01.978Z,22.16
2017-12-05T00:45:14.610Z,22.09
2017-12-05T00:45:27.674Z,22.16
2017-12-05T00:45:40.831Z,22.16
2017-12-05T00:45:54.026Z,22.22
2017-12-05T00:46:07.108Z,22.18
2017-12-05T00:46:19.715Z,22.15
2017-12-05T00:46:32.319Z,22.24
2017-12-05T00:46:45.425Z,22.18
2017-12-05T00:46:58.469Z,22.14
2017-12-05T00:47:11.608Z,22.18
2017-12-05T00:47:24.672Z,22.16
2017-12-05T00:47:37.781Z,22.16
2017-12-05T00:47:50.939Z,22.23
2017-12-05T00:48:04.084Z,22.26
2017-12-05T00:48:16.261Z,22.22
2017-12-05T00:48:29.340Z,22.15
2017-12-05T00:48:42.387Z,22.18
2017-12-05T00:48:55.468Z,22.18
2017-12-05T00:49:08.555Z,22.22
2017-12-05T00:49:21.598Z,22.23
2017-12-05T00:49:34.677Z,22.18
2017-12-05T00:49:47.849Z,22.16
2017-12-05T00:50:00.937Z,22.23
2017-12-05T00:50:12.636Z,22.2
2017-12-05T00:50:25.719Z,22.23
2017-12-05T00:50:38.810Z,22.08
2017-12-05T00:50:51.441Z,22.07
2017-12-05T00:51:04.133Z,22.12
2017-12-05T00:51:16.785Z,22.08
2017-12-05T00:51:29.488Z,22.09
2017-12-05T00:51:42.572Z,22.14
2017-12-05T00:51:55.247Z,22.16
2017-12-05T00:52:07.924Z,22.07
2017-12-05T00:52:20.957Z,22.09
2017-12-05T00:52:34.107Z,22.11
2017-12-05T00:52:47.172Z,22.11
2017-12-05T00:53:00.317Z,22.11
2017-12-05T00:53:12.942Z,22.09
2017-12-05T00:53:26.036Z,22.11
2017-12-05T00:53:38.648Z,22.12
2017-12-05T00:53:51.283Z,22.08
2017-12-05T00:54:04.431Z,22.02
2017-12-05T00:54:17.796Z,22.12
2017-12-05T00:54:30.958Z,22.08
2017-12-05T00:54:44.081Z,22.09
2017-12-05T00:54:57.115Z,22.09
2017-12-05T00:55:09.720Z,22.07
2017-12-05T00:55:22.808Z,22.07
2017-12-05T00:55:35.449Z,22.09
2017-12-05T00:55:48.572Z,22
2017-12-05T00:56:01.661Z,22.05
2017-12-05T00:56:14.805Z,22.09
2017-12-05T00:56:27.427Z,22.04
2017-12-05T00:56:40.559Z,21.97
2017-12-05T00:56:53.692Z,22.04
2017-12-05T00:57:06.793Z,22.11
2017-12-05T00:57:19.455Z,22.02
2017-12-05T00:57:31.596Z,22
2017-12-05T00:57:44.205Z,22.07
2017-12-05T00:57:56.866Z,22.02
2017-12-05T00:58:09.474Z,22
2017-12-05T00:58:22.266Z,22.08
2017-12-05T00:58:35.281Z,22.02
2017-12-05T00:58:48.411Z,22
2017-12-05T00:59:01.773Z,21.97
2017-12-05T00:59:14.848Z,22.04
2017-12-05T00:59:27.977Z,21.92
2017-12-05T00:59:41.092Z,21.92
2017-12-05T00:59:54.221Z,21.92
2017-12-05T01:00:07.289Z,21.93
2017-12-05T01:00:20.426Z,22.04
2017-12-05T01:00:33.535Z,21.9
2017-12-05T01:00:46.176Z,21.97
2017-12-05T01:00:58.349Z,21.94
2017-12-05T01:01:11.460Z,21.89
2017-12-05T01:01:23.612Z,21.99
2017-12-05T01:01:36.726Z,21.94
2017-12-05T01:01:48.873Z,21.99
2017-12-05T01:02:01.970Z,22.02
2017-12-05T01:02:14.539Z,21.93
2017-12-05T01:02:27.138Z,22.08
2017-12-05T01:02:39.733Z,21.97
2017-12-05T01:02:52.824Z,21.93
2017-12-05T01:03:05.931Z,21.92
2017-12-05T01:03:18.571Z,22
2017-12-05T01:03:31.154Z,21.86
2017-12-05T01:03:44.272Z,22.08
2017-12-05T01:03:57.478Z,21.92
2017-12-05T01:04:10.595Z,21.94
2017-12-05T01:04:23.230Z,22.02
2017-12-05T01:04:36.323Z,22
2017-12-05T01:04:49.468Z,21.94
2017-12-05T01:05:02.603Z,21.96
2017-12-05T01:05:15.656Z,22
2017-12-05T01:05:28.267Z,21.96
2017-12-05T01:05:41.389Z,21.94
2017-12-05T01:05:54.037Z,21.94
2017-12-05T01:06:07.125Z,21.99
2017-12-05T01:06:20.176Z,21.97
2017-12-05T01:06:32.282Z,22
2017-12-05T01:06:44.896Z,22.02
2017-12-05T01:06:57.534Z,21.93
2017-12-05T01:07:10.100Z,21.96
2017-12-05T01:07:23.166Z,21.96
2017-12-05T01:07:35.330Z,21.93
2017-12-05T01:07:47.941Z,21.97
2017-12-05T01:08:01.035Z,21.96
2017-12-05T01:08:13.688Z,21.96
2017-12-05T01:08:26.324Z,21.94
2017-12-05T01:08:38.957Z,21.97
2017-12-05T01:08:52.085Z,21.97
2017-12-05T01:09:05.111Z,21.93
2017-12-05T01:09:18.195Z,21.9
2017-12-05T01:09:31.267Z,21.93
2017-12-05T01:09:44.356Z,21.97
2017-12-05T01:09:57.515Z,22.04
2017-12-05T01:10:10.181Z,21.94
2017-12-05T01:10:23.288Z,22.02
2017-12-05T01:10:36.422Z,21.96
2017-12-05T01:10:49.545Z,21.99
2017-12-05T01:11:02.162Z,22
2017-12-05T01:11:15.235Z,21.99
2017-12-05T01:11:27.902Z,22
2017-12-05T01:11:40.523Z,22
2017-12-05T01:11:53.634Z,21.94
2017-12-05T01:12:05.767Z,21.9
2017-12-05T01:12:18.309Z,22.05
2017-12-05T01:12:30.911Z,21.97
2017-12-05T01:12:43.984Z,21.93
2017-12-05T01:12:57.063Z,22.02
2017-12-05T01:13:09.720Z,21.99
2017-12-05T01:13:22.883Z,22
2017-12-05T01:13:35.500Z,22
2017-12-05T01:13:48.607Z,22.07
2017-12-05T01:14:01.851Z,22.09
2017-12-05T01:14:14.956Z,22.07
2017-12-05T01:14:28.140Z,22
2017-12-05T01:14:41.221Z,22
2017-12-05T01:14:54.369Z,22.05
2017-12-05T01:15:07.474Z,22.08
2017-12-05T01:15:20.636Z,22.14
2017-12-05T01:15:33.739Z,22.09
2017-12-05T01:15:46.408Z,22.09
2017-12-05T01:15:59.477Z,22
2017-12-05T01:16:12.136Z,22.07
2017-12-05T01:16:24.729Z,22.08
2017-12-05T01:16:37.780Z,22.05
2017-12-05T01:16:50.440Z,22.12
2017-12-05T01:17:03.614Z,22.09
2017-12-05T01:17:16.712Z,22.07
2017-12-05T01:17:29.808Z,22.05
2017-12-05T01:17:42.835Z,22.05
2017-12-05T01:17:55.914Z,22.08
2017-12-05T01:18:09.008Z,22.14
2017-12-05T01:18:21.603Z,22.07
2017-12-05T01:18:34.705Z,22.12
2017-12-05T01:18:47.336Z,22.11
2017-12-05T01:18:59.937Z,22.04
2017-12-05T01:19:13.040Z,22.12
2017-12-05T01:19:26.167Z,22.09
2017-12-05T01:19:38.771Z,22.11
2017-12-05T01:19:51.817Z,22.05
2017-12-05T01:20:04.852Z,22.11
2017-12-05T01:20:17.039Z,22.07
2017-12-05T01:20:30.115Z,22.2
2017-12-05T01:20:42.724Z,22.09
2017-12-05T01:20:55.813Z,22.07
2017-12-05T01:21:08.411Z,22.16
2017-12-05T01:21:21.560Z,22.05
2017-12-05T01:21:34.681Z,22.18
2017-12-05T01:21:47.779Z,22.11
2017-12-05T01:22:00.421Z,22.08
2017-12-05T01:22:12.583Z,22.2
2017-12-05T01:22:25.222Z,22.16
2017-12-05T01:22:38.349Z,22.15
2017-12-05T01:22:50.941Z,22.16
2017-12-05T01:23:04.162Z,22.15
2017-12-05T01:23:17.265Z,22.22
2017-12-05T01:23:30.332Z,22.2
2017-12-05T01:23:42.965Z,22.18
2017-12-05T01:23:55.601Z,22.22
2017-12-05T01:24:08.757Z,22.15
2017-12-05T01:24:21.423Z,22.16
2017-12-05T01:24:34.004Z,22.14
2017-12-05T01:24:47.049Z,22.15
2017-12-05T01:24:59.667Z,22.05
2017-12-05T01:25:12.742Z,22.29
2017-12-05T01:25:25.380Z,22.26
2017-12-05T01:25:37.998Z,22.24
2017-12-05T01:25:50.617Z,22.29
2017-12-05T01:26:03.662Z,22.27
2017-12-05T01:26:18.162Z,22.22
2017-12-05T01:26:31.290Z,22.22
2017-12-05T01:26:44.376Z,22.16
2017-12-05T01:26:57.495Z,22.22
2017-12-05T01:27:10.628Z,22.26
2017-12-05T01:27:23.282Z,22.22
2017-12-05T01:27:36.346Z,22.18
2017-12-05T01:27:48.919Z,22.15
2017-12-05T01:28:01.072Z,22.15
2017-12-05T01:28:13.225Z,22.2
2017-12-05T01:28:26.326Z,22.08
2017-12-05T01:28:39.435Z,22.08
2017-12-05T01:28:52.525Z,22.09
2017-12-05T01:29:05.682Z,22.08
2017-12-05T01:29:18.832Z,22.07
2017-12-05T01:29:31.951Z,22
2017-12-05T01:29:45.041Z,22.05
2017-12-05T01:29:58.148Z,22
2017-12-05T01:30:10.305Z,21.96
2017-12-05T01:30:23.439Z,21.99
2017-12-05T01:30:36.529Z,22.02
2017-12-05T01:30:49.657Z,22.08
2017-12-05T01:31:02.254Z,21.89
2017-12-05T01:31:15.378Z,22
2017-12-05T01:31:28.052Z,21.92
2017-12-05T01:31:40.691Z,21.9
2017-12-05T01:31:53.313Z,21.94
2017-12-05T01:32:06.428Z,22
2017-12-05T01:32:19.529Z,21.92
2017-12-05T01:32:32.649Z,21.85
2017-12-05T01:32:45.306Z,21.9
2017-12-05T01:32:58.466Z,21.86
2017-12-05T01:33:11.131Z,21.86
2017-12-05T01:33:24.254Z,21.9
2017-12-05T01:33:37.381Z,21.9
2017-12-05T01:33:50.604Z,21.9
2017-12-05T01:34:03.167Z,21.9
2017-12-05T01:34:16.514Z,21.85
2017-12-05T01:34:29.595Z,21.9
2017-12-05T01:34:42.650Z,21.89
2017-12-05T01:34:55.780Z,21.89
2017-12-05T01:35:08.406Z,21.86
2017-12-05T01:35:21.526Z,21.86
2017-12-05T01:35:33.708Z,21.83
2017-12-05T01:35:46.776Z,21.92
2017-12-05T01:35:59.841Z,21.85
2017-12-05T01:36:12.448Z,21.86
2017-12-05T01:36:25.503Z,21.86
2017-12-05T01:36:38.602Z,21.85
2017-12-05T01:36:51.692Z,21.86
2017-12-05T01:37:04.782Z,21.89
2017-12-05T01:37:17.904Z,21.94
2017-12-05T01:37:30.994Z,21.86
2017-12-05T01:37:44.129Z,21.93
2017-12-05T01:37:57.276Z,21.83
2017-12-05T01:38:09.875Z,21.89
2017-12-05T01:38:22.954Z,21.86
2017-12-05T01:38:35.626Z,21.99
2017-12-05T01:38:48.750Z,21.85
2017-12-05T01:39:01.824Z,21.97
2017-12-05T01:39:15.041Z,21.96
2017-12-05T01:39:28.143Z,21.92
2017-12-05T01:39:41.247Z,21.9
2017-12-05T01:39:53.846Z,21.99
2017-12-05T01:40:06.929Z,21.94
2017-12-05T01:40:20.001Z,22.05
2017-12-05T01:40:33.163Z,21.96
2017-12-05T01:40:46.283Z,22.02
2017-12-05T01:40:58.910Z,22
2017-12-05T01:41:11.494Z,21.92
2017-12-05T01:41:24.610Z,22
2017-12-05T01:41:37.752Z,21.94
2017-12-05T01:41:50.837Z,21.89
2017-12-05T01:42:03.493Z,22.02
2017-12-05T01:42:15.633Z,22.04
2017-12-05T01:42:28.718Z,21.94
2017-12-05T01:42:41.338Z,21.92
2017-12-05T01:42:54.445Z,22.02
2017-12-05T01:43:07.510Z,21.94
2017-12-05T01:43:20.649Z,21.92
2017-12-05T01:43:33.774Z,21.9
2017-12-05T01:43:46.852Z,21.94
2017-12-05T01:43:59.930Z,21.96
2017-12-05T01:44:13.231Z,22
2017-12-05T01:44:25.856Z,21.9
2017-12-05T01:44:38.981Z,22.02
2017-12-05T01:44:52.074Z,21.93
2017-12-05T01:45:05.268Z,22.05
2017-12-05T01:45:18.348Z,21.97
2017-12-05T01:45:31.440Z,21.99
2017-12-05T01:45:44.526Z,22.02
2017-12-05T01:45:56.747Z,22
2017-12-05T01:46:09.395Z,21.96
2017-12-05T01:46:22.562Z,22.02
2017-12-05T01:46:35.655Z,22
2017-12-05T01:46:48.715Z,22
2017-12-05T01:47:01.852Z,21.99
2017-12-05T01:47:14.431Z,21.97
2017-12-05T01:47:27.489Z,22.07
2017-12-05T01:47:40.617Z,21.94
2017-12-05T01:47:53.200Z,21.99
2017-12-05T01:48:06.273Z,21.9
2017-12-05T01:48:18.477Z,21.96
2017-12-05T01:48:31.633Z,21.85
2017-12-05T01:48:44.728Z,21.85
2017-12-05T01:48:57.747Z,21.9
2017-12-05T01:49:10.319Z,21.97
2017-12-05T01:49:23.424Z,21.92
2017-12-05T01:49:36.500Z,22.02
2017-12-05T01:49:49.535Z,21.99
2017-12-05T01:50:02.575Z,21.94
2017-12-05T01:50:14.730Z,21.96
2017-12-05T01:50:27.865Z,21.82
2017-12-05T01:50:40.947Z,21.92
2017-12-05T01:50:54.062Z,21.93
2017-12-05T01:51:07.152Z,21.89
2017-12-05T01:51:20.338Z,21.9
2017-12-05T01:51:32.941Z,21.89
2017-12-05T01:51:46.048Z,21.85
2017-12-05T01:51:58.709Z,21.92
2017-12-05T01:52:11.336Z,21.89
2017-12-05T01:52:24.026Z,21.83
2017-12-05T01:52:36.675Z,21.97
2017-12-05T01:52:49.797Z,21.82
2017-12-05T01:53:02.892Z,21.85
2017-12-05T01:53:15.956Z,21.96
2017-12-05T01:53:29.055Z,21.83
2017-12-05T01:53:41.758Z,21.89
2017-12-05T01:53:54.842Z,21.9
2017-12-05T01:54:07.937Z,21.9
2017-12-05T01:54:20.540Z,21.89
2017-12-05T01:54:33.904Z,21.85
2017-12-05T01:54:46.976Z,21.89
2017-12-05T01:55:00.110Z,21.9
2017-12-05T01:55:12.254Z,21.85
2017-12-05T01:55:24.880Z,21.86
2017-12-05T01:55:37.616Z,21.83
2017-12-05T01:55:50.958Z,21.89
2017-12-05T01:56:04.061Z,21.89
2017-12-05T01:56:16.257Z,21.86
2017-12-05T01:56:29.369Z,21.82
2017-12-05T01:56:42.420Z,21.83
2017-12-05T01:56:55.615Z,21.8
2017-12-05T01:57:08.237Z,21.78
2017-12-05T01:57:21.395Z,21.7
2017-12-05T01:57:34.474Z,21.78
2017-12-05T01:57:47.564Z,21.83
2017-12-05T01:58:00.680Z,21.77
2017-12-05T01:58:13.756Z,21.85
2017-12-05T01:58:26.892Z,21.73
2017-12-05T01:58:39.992Z,21.76
2017-12-05T01:58:53.085Z,21.83
2017-12-05T01:59:06.188Z,21.73
2017-12-05T01:59:19.473Z,21.82
2017-12-05T01:59:32.624Z,21.77
2017-12-05T01:59:45.312Z,21.71
2017-12-05T01:59:58.399Z,21.82
2017-12-05T02:00:11.454Z,21.8
2017-12-05T02:00:24.075Z,21.8
2017-12-05T02:00:37.142Z,21.86
2017-12-05T02:00:50.235Z,21.86
2017-12-05T02:01:03.364Z,21.82
2017-12-05T02:01:16.473Z,21.86
2017-12-05T02:01:29.534Z,21.82
2017-12-05T02:01:42.613Z,21.8
2017-12-05T02:01:55.745Z,21.77
2017-12-05T02:02:08.877Z,21.86
2017-12-05T02:02:22.138Z,21.77
2017-12-05T02:02:34.293Z,21.83
2017-12-05T02:02:46.480Z,21.85
2017-12-05T02:02:59.618Z,21.8
2017-12-05T02:03:12.766Z,21.8
2017-12-05T02:03:25.891Z,21.83
2017-12-05T02:03:38.549Z,21.82
2017-12-05T02:03:51.656Z,21.77
2017-12-05T02:04:04.748Z,21.83
2017-12-05T02:04:17.421Z,21.82
2017-12-05T02:04:30.608Z,21.76
2017-12-05T02:04:43.687Z,21.74
2017-12-05T02:04:56.771Z,21.78
2017-12-05T02:05:09.982Z,21.89
2017-12-05T02:05:22.598Z,21.76
2017-12-05T02:05:35.229Z,21.93
2017-12-05T02:05:47.868Z,21.86
2017-12-05T02:06:00.955Z,21.7
2017-12-05T02:06:13.611Z,21.77
2017-12-05T02:06:26.743Z,21.68
2017-12-05T02:06:39.845Z,21.83
2017-12-05T02:06:52.961Z,21.83
2017-12-05T02:07:06.089Z,21.77
2017-12-05T02:07:19.207Z,21.85
2017-12-05T02:07:32.291Z,21.76
2017-12-05T02:07:45.360Z,21.74
2017-12-05T02:07:58.460Z,21.74
2017-12-05T02:08:11.122Z,21.8
2017-12-05T02:08:24.206Z,21.78
2017-12-05T02:08:37.294Z,21.73
2017-12-05T02:08:49.932Z,21.73
2017-12-05T02:09:03.313Z,21.71
2017-12-05T02:09:16.387Z,21.67
2017-12-05T02:09:28.982Z,21.78
2017-12-05T02:09:42.043Z,21.71
2017-12-05T02:09:55.182Z,21.71
2017-12-05T02:10:08.339Z,21.7
2017-12-05T02:10:21.428Z,21.68
2017-12-05T02:10:34.477Z,21.76
2017-12-05T02:10:47.569Z,21.76
2017-12-05T02:11:00.639Z,21.67
2017-12-05T02:11:13.662Z,21.71
2017-12-05T02:11:26.788Z,21.77
2017-12-05T02:11:39.401Z,21.74
2017-12-05T02:11:52.546Z,21.77
2017-12-05T02:12:04.708Z,21.71
2017-12-05T02:12:17.745Z,21.74
2017-12-05T02:12:30.817Z,21.71
2017-12-05T02:12:43.425Z,21.71
2017-12-05T02:12:56.568Z,21.64
2017-12-05T02:13:09.666Z,21.73
2017-12-05T02:13:22.775Z,21.7
2017-12-05T02:13:35.857Z,21.74
2017-12-05T02:13:48.917Z,21.7
2017-12-05T02:14:02.004Z,21.71
2017-12-05T02:14:14.642Z,21.71
2017-12-05T02:14:28.408Z,21.7
2017-12-05T02:14:41.535Z,21.64
2017-12-05T02:14:54.619Z,21.74
2017-12-05T02:15:07.697Z,21.68
2017-12-05T02:15:20.768Z,21.64
2017-12-05T02:15:33.911Z,21.61
2017-12-05T02:15:46.955Z,21.68
2017-12-05T02:15:59.978Z,21.68
2017-12-05T02:16:13.029Z,21.77
2017-12-05T02:16:26.115Z,21.71
2017-12-05T02:16:38.817Z,21.77
2017-12-05T02:16:51.995Z,21.74
2017-12-05T02:17:05.090Z,21.73
2017-12-05T02:17:18.216Z,21.77
2017-12-05T02:17:31.358Z,21.73
2017-12-05T02:17:44.021Z,21.71
2017-12-05T02:17:57.147Z,21.73
2017-12-05T02:18:10.500Z,21.64
2017-12-05T02:18:23.603Z,21.71
2017-12-05T02:18:36.666Z,21.74
2017-12-05T02:18:49.763Z,21.66
2017-12-05T02:19:02.841Z,21.61
2017-12-05T02:19:15.400Z,21.67
2017-12-05T02:19:28.515Z,21.67
2017-12-05T02:19:41.642Z,21.68
2017-12-05T02:19:54.232Z,21.67
2017-12-05T02:20:06.788Z,21.68
2017-12-05T02:20:18.452Z,21.67
2017-12-05T02:20:31.142Z,21.61
2017-12-05T02:20:44.217Z,21.68
2017-12-05T02:20:56.831Z,21.64
2017-12-05T02:21:09.943Z,21.64
2017-12-05T02:21:23.002Z,21.64
2017-12-05T02:21:36.172Z,21.62
2017-12-05T02:21:49.386Z,21.61
2017-12-05T02:22:02.486Z,21.66
2017-12-05T02:22:15.095Z,21.62
2017-12-05T02:22:28.192Z,21.67
2017-12-05T02:22:41.301Z,21.66
2017-12-05T02:22:54.151Z,21.58
2017-12-05T02:23:07.251Z,21.56
2017-12-05T02:23:19.452Z,21.56
2017-12-05T02:23:32.614Z,21.66
2017-12-05T02:23:45.708Z,21.59
2017-12-05T02:23:58.287Z,21.62
2017-12-05T02:24:11.386Z,21.55
2017-12-05T02:24:23.977Z,21.64
2017-12-05T02:24:37.086Z,21.66
2017-12-05T02:24:50.226Z,21.59
2017-12-05T02:25:03.293Z,21.64
2017-12-05T02:25:16.395Z,21.61
2017-12-05T02:25:29.452Z,21.64
2017-12-05T02:25:42.107Z,21.59
2017-12-05T02:25:55.218Z,21.62
2017-12-05T02:26:08.309Z,21.59
2017-12-05T02:26:21.418Z,21.55
2017-12-05T02:26:34.657Z,21.64
2017-12-05T02:26:47.789Z,21.55
2017-12-05T02:27:00.882Z,21.55
2017-12-05T02:27:13.463Z,21.59
2017-12-05T02:27:26.191Z,21.61
2017-12-05T02:27:39.238Z,21.58
2017-12-05T02:27:52.336Z,21.55
2017-12-05T02:28:05.441Z,21.59
2017-12-05T02:28:18.016Z,21.58
2017-12-05T02:28:31.128Z,21.56
2017-12-05T02:28:44.294Z,21.61
2017-12-05T02:28:56.861Z,21.53
2017-12-05T02:29:09.978Z,21.66
2017-12-05T02:29:23.070Z,21.61
2017-12-05T02:29:36.795Z,21.66
2017-12-05T02:29:49.479Z,21.62
2017-12-05T02:30:02.172Z,21.61
2017-12-05T02:30:14.784Z,21.58
2017-12-05T02:30:28.159Z,21.64
2017-12-05T02:30:41.270Z,21.55
2017-12-05T02:30:54.426Z,21.61
2017-12-05T02:31:07.085Z,21.58
2017-12-05T02:31:19.716Z,21.59
2017-12-05T02:31:32.572Z,21.53
2017-12-05T02:31:45.631Z,21.66
2017-12-05T02:31:58.725Z,21.62
2017-12-05T02:32:11.804Z,21.66
2017-12-05T02:32:24.442Z,21.67
2017-12-05T02:32:37.500Z,21.66
2017-12-05T02:32:50.140Z,21.66
2017-12-05T02:33:03.269Z,21.66
2017-12-05T02:33:16.393Z,21.62
2017-12-05T02:33:29.538Z,21.68
2017-12-05T02:33:42.598Z,21.67
2017-12-05T02:33:55.696Z,21.7
2017-12-05T02:34:07.829Z,21.66
2017-12-05T02:34:20.900Z,21.64
2017-12-05T02:34:34.080Z,21.61
2017-12-05T02:34:47.158Z,21.7
2017-12-05T02:35:00.270Z,21.62
2017-12-05T02:35:12.489Z,21.67
2017-12-05T02:35:25.157Z,21.66
2017-12-05T02:35:38.259Z,21.62
2017-12-05T02:35:51.387Z,21.58
2017-12-05T02:36:04.497Z,21.51
2017-12-05T02:36:17.574Z,21.68
2017-12-05T02:36:30.736Z,21.58
2017-12-05T02:36:43.819Z,21.64
2017-12-05T02:36:56.944Z,21.62
2017-12-05T02:37:10.018Z,21.52
2017-12-05T02:37:23.102Z,21.66
2017-12-05T02:37:35.690Z,21.55
2017-12-05T02:37:48.792Z,21.56
2017-12-05T02:38:01.438Z,21.62
2017-12-05T02:38:13.093Z,21.62
2017-12-05T02:38:25.714Z,21.59
2017-12-05T02:38:38.851Z,21.62
2017-12-05T02:38:51.978Z,21.66
2017-12-05T02:39:05.087Z,21.59
2017-12-05T02:39:18.211Z,21.56
2017-12-05T02:39:31.274Z,21.61
2017-12-05T02:39:44.601Z,21.61
2017-12-05T02:39:57.246Z,21.61
2017-12-05T02:40:09.884Z,21.53
2017-12-05T02:40:22.971Z,21.61
2017-12-05T02:40:35.651Z,21.62
2017-12-05T02:40:48.785Z,21.51
2017-12-05T02:41:01.954Z,21.53
2017-12-05T02:41:15.028Z,21.56
2017-12-05T02:41:28.094Z,21.56
2017-12-05T02:41:41.207Z,21.55
2017-12-05T02:41:54.312Z,21.56
2017-12-05T02:42:07.371Z,21.55
2017-12-05T02:42:20.029Z,21.56
2017-12-05T02:42:33.095Z,21.61
2017-12-05T02:42:45.739Z,21.56
2017-12-05T02:42:58.877Z,21.59
2017-12-05T02:43:11.471Z,21.56
2017-12-05T02:43:24.630Z,21.56
2017-12-05T02:43:37.722Z,21.59
2017-12-05T02:43:50.821Z,21.62
2017-12-05T02:44:03.953Z,21.61
2017-12-05T02:44:17.038Z,21.59
2017-12-05T02:44:30.163Z,21.49
2017-12-05T02:44:44.047Z,21.62
2017-12-05T02:44:57.138Z,21.66
2017-12-05T02:45:09.790Z,21.62
2017-12-05T02:45:22.465Z,21.59
2017-12-05T02:45:35.597Z,21.61
2017-12-05T02:45:48.696Z,21.56
2017-12-05T02:46:01.784Z,21.59
2017-12-05T02:46:14.913Z,21.67
2017-12-05T02:46:28.025Z,21.64
2017-12-05T02:46:40.660Z,21.59
2017-12-05T02:46:53.773Z,21.59
2017-12-05T02:47:06.843Z,21.61
2017-12-05T02:47:19.804Z,21.59
2017-12-05T02:47:32.922Z,21.61
2017-12-05T02:47:46.066Z,21.66
2017-12-05T02:47:58.650Z,21.66